Time;durP1;ratioP1;P1;durP2;ratioP2;P2;SDS_P1;SDS_P2;PMS_P1;PMS_P2;Temp;Humidity;BMP_temperature;BMP_pressure;BME280_temperature;BME280_humidity;BME280_pressure;Samples;Min_cycle;Max_cycle;Signal;HPM_P1;HPM_P2
2022/11/16 00:01:53;;;;;;;4.82;3.10;;;9.80;99.90;;;9.23;100.00;95992.22;4960657;28;20042;-60
2022/11/16 00:04:18;;;;;;;4.47;3.28;;;9.80;99.90;;;9.09;100.00;95976.34;4959905;28;20046;-59
2022/11/16 00:06:45;;;;;;;4.38;3.22;;;9.80;99.90;;;9.19;100.00;95998.59;4962087;28;20039;-59
2022/11/16 00:09:24;;;;;;;5.32;3.30;;;9.80;99.90;;;9.18;100.00;95992.47;4962122;28;20506;-59
2022/11/16 00:12:06;;;;;;;5.43;3.42;;;9.80;99.90;;;9.17;100.00;95995.22;4959763;28;20091;-59
2022/11/16 00:14:33;;;;;;;8.43;3.60;;;9.80;99.90;;;9.17;100.00;96000.47;4961260;28;20097;-59
2022/11/16 00:17:00;;;;;;;4.55;3.60;;;9.70;99.90;;;9.16;100.00;95998.75;4961507;28;20069;-59
2022/11/16 00:19:27;;;;;;;5.00;3.60;;;9.80;99.90;;;9.15;100.00;95986.53;4966114;28;20038;-59
2022/11/16 00:21:53;;;;;;;6.30;3.65;;;9.80;99.90;;;9.18;100.00;95996.88;4960160;28;20049;-59
2022/11/16 00:24:21;;;;;;;4.82;3.25;;;9.80;99.90;;;9.17;100.00;95998.69;4953869;28;20052;-59
2022/11/16 00:26:48;;;;;;;4.72;3.08;;;9.80;99.90;;;9.18;100.00;95996.88;4952165;28;20058;-59
2022/11/16 00:29:18;;;;;;;6.82;2.85;;;9.80;99.90;;;9.17;100.00;95989.94;4956054;28;20066;-59
2022/11/16 00:31:45;;;;;;;3.67;2.72;;;9.80;99.90;;;9.15;100.00;95992.66;4967428;28;20037;-59
2022/11/16 00:34:11;;;;;;;3.65;2.38;;;9.80;99.90;;;9.12;100.00;95976.19;4959891;28;20031;-59
2022/11/16 00:36:36;;;;;;;3.85;2.70;;;9.80;99.90;;;9.14;100.00;95976.94;4962912;28;20244;-59
2022/11/16 00:39:03;;;;;;;4.72;2.47;;;9.80;99.90;;;9.11;100.00;95972.69;4962538;28;20042;-59
2022/11/16 00:41:28;;;;;;;3.53;2.63;;;9.70;99.90;;;9.12;100.00;95968.31;4965172;28;20129;-59
2022/11/16 00:43:54;;;;;;;4.13;2.95;;;9.70;99.90;;;9.11;100.00;95980.56;4959422;28;20035;-59
2022/11/16 00:46:20;;;;;;;4.22;2.72;;;9.70;99.90;;;9.09;100.00;95971.09;4958480;28;20082;-59
2022/11/16 00:48:46;;;;;;;3.85;2.70;;;9.70;99.90;;;9.06;100.00;95979.13;4961804;28;20042;-59
2022/11/16 00:51:12;;;;;;;6.90;3.17;;;9.60;99.90;;;9.04;100.00;95976.56;4962328;28;20619;-59
2022/11/16 00:53:38;;;;;;;4.63;3.03;;;9.60;99.90;;;9.04;100.00;95967.84;4967374;28;20109;-60
2022/11/16 00:56:04;;;;;;;5.30;3.20;;;9.60;99.90;;;8.97;100.00;95957.69;4968304;28;20062;-58
2022/11/16 00:58:30;;;;;;;8.68;2.75;;;9.60;99.90;;;9.01;100.00;95960.13;4965667;28;20050;-59
2022/11/16 01:00:55;;;;;;;4.18;2.90;;;9.60;99.90;;;9.01;100.00;95962.75;4961717;28;20117;-59
2022/11/16 01:03:21;;;;;;;4.95;2.72;;;9.60;99.90;;;9.01;100.00;95957.50;4965581;28;20105;-59
2022/11/16 01:05:47;;;;;;;5.32;3.53;;;9.60;99.90;;;8.95;100.00;95949.03;4964407;28;20121;-59
2022/11/16 01:08:13;;;;;;;4.32;3.30;;;9.60;99.90;;;8.95;100.00;95963.94;4967284;28;20121;-59
2022/11/16 01:10:40;;;;;;;5.43;2.97;;;9.50;99.90;;;8.93;100.00;95950.03;4957963;28;20333;-59
2022/11/16 01:13:06;;;;;;;3.83;2.90;;;9.50;99.90;;;8.92;100.00;95959.69;4949138;28;20154;-59
2022/11/16 01:15:32;;;;;;;4.53;2.92;;;9.50;99.90;;;8.91;100.00;95952.72;4954765;28;20895;-61
2022/11/16 01:17:58;;;;;;;5.50;3.50;;;9.50;99.90;;;8.91;100.00;95944.84;4953240;28;20038;-59
2022/11/16 01:20:26;;;;;;;8.18;3.38;;;9.50;99.90;;;8.88;100.00;95952.91;4965689;28;20038;-59
2022/11/16 01:22:52;;;;;;;6.22;3.15;;;9.50;99.90;;;8.88;100.00;95947.66;4960264;28;20061;-59
2022/11/16 01:25:18;;;;;;;4.80;3.30;;;9.50;99.90;;;8.88;100.00;95952.91;4958967;28;20100;-59
2022/11/16 01:27:44;;;;;;;4.63;3.05;;;9.50;99.90;;;8.86;100.00;95946.84;4972619;28;20047;-59
2022/11/16 01:30:13;;;;;;;3.03;2.50;;;9.50;99.90;;;8.86;100.00;95943.41;4957727;28;20715;-59
2022/11/16 01:32:39;;;;;;;4.03;2.85;;;9.50;99.90;;;8.85;100.00;95932.03;4956412;28;20108;-59
2022/11/16 01:35:05;;;;;;;6.00;3.63;;;9.50;99.90;;;8.82;100.00;95936.59;4965556;28;20061;-61
2022/11/16 01:37:31;;;;;;;5.05;3.15;;;9.40;99.90;;;8.79;100.00;95945.50;4957180;28;20073;-59
2022/11/16 01:39:57;;;;;;;5.60;3.30;;;9.40;99.90;;;8.78;100.00;95946.44;4961490;28;20046;-59
2022/11/16 01:42:29;;;;;;;4.35;3.00;;;9.40;99.90;;;8.77;100.00;95942.97;4955608;28;20497;-59
2022/11/16 01:45:06;;;;;;;4.80;3.40;;;9.40;99.90;;;8.82;100.00;95937.44;4953873;28;20132;-59
2022/11/16 01:47:32;;;;;;;6.18;3.67;;;9.40;99.90;;;8.78;100.00;95938.56;4956008;28;20049;-59
2022/11/16 01:50:07;;;;;;;4.97;2.90;;;9.40;99.90;;;8.78;100.00;95931.50;4956853;28;20058;-59
2022/11/16 01:52:35;;;;;;;3.45;2.72;;;9.40;99.90;;;8.77;100.00;95928.97;4954945;28;20049;-59
2022/11/16 01:55:03;;;;;;;4.75;3.10;;;9.40;99.90;;;8.77;100.00;95928.97;4960199;28;20034;-60
2022/11/16 01:57:34;;;;;;;4.43;2.97;;;9.40;99.90;;;8.76;100.00;95932.53;4957376;28;20058;-59
2022/11/16 02:00:04;;;;;;;6.22;2.67;;;9.40;99.90;;;8.69;100.00;95918.03;4954174;28;20562;-59
2022/11/16 02:02:29;;;;;;;2.90;2.60;;;9.40;99.90;;;8.74;100.00;95927.34;4957467;28;20259;-59
2022/11/16 02:04:56;;;;;;;4.75;2.72;;;9.40;99.90;;;8.77;100.00;95931.59;4959491;28;20026;-59
2022/11/16 02:10:54;;;;;;;3.10;2.80;;;9.40;99.90;;;8.74;100.00;95932.59;4953732;28;20348;-59
2022/11/16 02:14:07;;;;;;;3.78;2.72;;;9.40;99.90;;;8.75;100.00;95941.34;4959055;28;20034;-59
2022/11/16 02:17:19;;;;;;;5.07;2.85;;;9.40;99.90;;;8.74;100.00;95943.13;4963292;28;20209;-59
2022/11/16 02:20:22;;;;;;;4.53;3.13;;;9.40;99.90;;;8.74;100.00;95939.63;4959987;28;20076;-59
2022/11/16 02:23:15;;;;;;;4.35;2.90;;;9.40;99.90;;;8.73;100.00;95932.69;4965745;28;20030;-59
2022/11/16 02:26:30;;;;;;;13.77;3.20;;;9.40;99.90;;;8.73;100.00;95928.28;4960613;28;20038;-59
2022/11/16 02:29:36;;;;;;;5.95;2.50;;;9.30;99.90;;;8.77;100.00;95923.69;4957701;28;20034;-59
2022/11/16 02:32:15;;;;;;;4.43;2.60;;;9.40;99.90;;;8.76;100.00;95928.13;4959829;28;20476;-59
2022/11/16 02:34:56;;;;;;;4.38;2.90;;;9.40;99.90;;;8.77;100.00;95921.94;4960184;28;20461;-59
2022/11/16 02:37:25;;;;;;;7.80;2.97;;;9.40;99.90;;;8.80;100.00;95923.53;4958303;28;20192;-59
2022/11/16 02:39:59;;;;;;;4.70;2.95;;;9.40;99.90;;;8.79;100.00;95913.94;4977978;28;20085;-59
2022/11/16 02:42:37;;;;;;;4.20;2.75;;;9.40;99.90;;;8.80;100.00;95913.03;4967269;28;20046;-59
2022/11/16 02:45:06;;;;;;;4.93;3.00;;;9.40;99.90;;;8.79;100.00;95911.31;4956350;28;20030;-59
2022/11/16 02:47:34;;;;;;;3.53;2.38;;;9.40;99.90;;;8.76;100.00;95907.09;4954187;28;20193;-59
2022/11/16 02:50:13;;;;;;;5.22;2.50;;;9.40;99.90;;;8.81;100.00;95912.13;4957484;28;21063;-59
2022/11/16 02:52:38;;;;;;;3.05;2.30;;;9.40;99.90;;;8.82;100.00;95912.94;4958603;28;21017;-59
2022/11/16 02:55:06;;;;;;;5.78;2.47;;;9.40;99.90;;;8.82;100.00;95910.31;4955950;28;20035;-59
2022/11/16 02:57:39;;;;;;;3.70;2.50;;;9.40;99.90;;;8.82;100.00;95905.91;4957255;28;20277;-59
2022/11/16 03:00:08;;;;;;;4.53;2.72;;;9.40;99.90;;;8.82;100.00;95902.44;4958411;28;20042;-59
2022/11/16 03:03:07;;;;;;;6.60;3.80;;;9.40;99.90;;;8.84;100.00;95909.28;4952462;28;20036;-59
2022/11/16 03:05:46;;;;;;;4.20;2.70;;;9.40;99.90;;;8.84;100.00;95914.56;4958593;28;20057;-59
2022/11/16 03:08:18;;;;;;;3.22;2.40;;;9.40;99.90;;;8.85;100.00;95911.00;4944662;28;20042;-59
2022/11/16 03:13:36;;;;;;;3.47;2.35;;;9.50;99.90;;;8.91;100.00;95915.09;4958047;28;20129;-59
2022/11/16 03:16:10;;;;;;;3.40;1.90;;;9.50;99.90;;;8.91;100.00;95905.41;4957118;28;20564;-59
2022/11/16 03:18:39;;;;;;;3.30;2.20;;;9.50;99.90;;;8.94;100.00;95909.66;4956486;28;20298;-59
2022/11/16 03:21:16;;;;;;;3.60;2.40;;;9.50;99.90;;;8.93;100.00;95894.81;4959839;28;20030;-59
2022/11/16 03:23:44;;;;;;;3.13;2.30;;;9.50;99.90;;;8.94;100.00;95902.63;4962370;28;20050;-59
2022/11/16 03:26:15;;;;;;;4.30;2.00;;;9.50;99.90;;;8.94;100.00;95896.53;4958787;28;20481;-59
2022/11/16 03:29:07;;;;;;;3.10;2.22;;;9.50;99.90;;;8.93;100.00;95893.03;4958034;28;20038;-59
2022/11/16 03:31:41;;;;;;;3.33;2.20;;;9.50;99.90;;;8.94;100.00;95889.47;4958441;28;20358;-59
2022/11/16 03:34:15;;;;;;;3.28;2.13;;;9.50;99.90;;;8.93;100.00;95890.38;4960363;28;20030;-59
2022/11/16 03:36:43;;;;;;;3.17;1.75;;;9.50;99.90;;;8.93;100.00;95892.19;4971204;23;20279;-43
2022/11/16 03:39:35;;;;;;;2.95;2.25;;;9.50;99.90;;;8.91;100.00;95880.91;4919566;28;20501;-43
2022/11/16 03:42:07;;;;;;;2.88;2.20;;;9.50;99.90;;;8.89;100.00;95880.97;4920095;28;20047;-43
2022/11/16 03:44:34;;;;;;;3.70;2.40;;;9.50;99.90;;;8.85;100.00;95873.38;4925310;28;20035;-43
2022/11/16 03:47:00;;;;;;;3.42;2.42;;;9.50;99.90;;;8.88;100.00;95876.69;4917999;28;20061;-42
2022/11/16 03:49:29;;;;;;;3.53;2.03;;;9.50;99.90;;;8.88;100.00;95878.44;4920192;28;20297;-44
2022/11/16 03:51:56;;;;;;;4.25;2.10;;;9.50;99.90;;;8.89;100.00;95877.50;4921761;28;20705;-43
2022/11/16 03:54:21;;;;;;;4.07;2.10;;;9.50;99.90;;;8.88;100.00;95879.31;4920302;28;20378;-43
2022/11/16 03:56:47;;;;;;;3.58;2.05;;;9.50;99.90;;;8.90;100.00;95887.94;4919457;28;20028;-44
2022/11/16 03:59:13;;;;;;;3.10;1.95;;;9.50;99.90;;;8.87;100.00;95890.75;4911420;28;20132;-43
2022/11/16 04:01:39;;;;;;;2.67;1.90;;;9.50;99.90;;;8.94;100.00;95920.19;4917045;28;20042;-43
2022/11/16 04:04:04;;;;;;;2.67;1.90;;;9.50;99.90;;;8.90;100.00;95914.25;4919420;28;20122;-42
2022/11/16 04:25:53;;;;;;;3.25;2.40;;;9.60;99.90;;;9.00;100.00;95956.66;4924287;28;20301;-43
2022/11/16 04:28:23;;;;;;;3.25;2.15;;;9.60;99.90;;;9.02;100.00;95953.94;4927362;28;20031;-44
2022/11/16 04:39:06;;;;;;;3.33;1.67;;;9.70;99.90;;;9.10;100.00;95941.25;4923813;28;20042;-43
2022/11/16 04:44:17;;;;;;;2.45;1.88;;;9.70;99.90;;;9.09;100.00;95944.78;4926757;28;20097;-44
2022/11/16 04:49:27;;;;;;;1.67;1.50;;;9.70;99.90;;;9.14;100.00;95955.91;4922663;28;20623;-45
2022/11/16 04:51:53;;;;;;;5.10;1.52;;;9.70;99.90;;;9.16;100.00;95951.41;4922072;28;20043;-43
2022/11/16 04:54:19;;;;;;;2.20;1.80;;;9.70;99.90;;;9.14;100.00;95938.34;4920924;28;20125;-42
2022/11/16 04:56:45;;;;;;;2.10;1.67;;;9.80;99.90;;;9.19;100.00;95943.38;4918479;28;20119;-44
2022/11/16 04:59:11;;;;;;;2.00;1.50;;;9.80;99.90;;;9.20;100.00;95937.16;4923625;28;20122;-45
2022/11/16 05:04:21;;;;;;;2.25;1.70;;;9.80;99.90;;;9.24;100.00;95935.22;4920747;28;20038;-43
2022/11/16 05:06:46;;;;;;;2.92;1.80;;;9.80;99.90;;;9.24;100.00;95940.47;4928240;28;20393;-44
2022/11/16 05:09:12;;;;;;;2.53;1.70;;;9.80;99.90;;;9.24;100.00;95928.19;4925819;28;20536;-43
2022/11/16 05:11:38;;;;;;;4.63;1.73;;;9.80;99.90;;;9.23;100.00;95937.00;4919289;28;20031;-44
2022/11/16 05:14:04;;;;;;;1.75;1.40;;;9.80;99.90;;;9.24;100.00;95932.56;4923279;28;20529;-44
2022/11/16 05:16:31;;;;;;;3.13;1.80;;;9.80;99.90;;;9.21;100.00;95925.72;4917176;28;20036;-44
2022/11/16 05:21:41;;;;;;;3.95;1.90;;;9.80;99.90;;;9.17;100.00;95932.91;4921043;28;20050;-44
2022/11/16 05:26:51;;;;;;;2.75;1.80;;;9.80;99.90;;;9.16;100.00;95947.00;4921917;28;20058;-43
2022/11/16 05:29:17;;;;;;;2.55;1.50;;;9.70;99.90;;;9.14;100.00;95948.88;4925787;28;20039;-46
2022/11/16 05:31:43;;;;;;;3.60;1.80;;;9.70;99.90;;;9.14;100.00;95943.59;4919936;28;20567;-43
2022/11/16 05:34:09;;;;;;;2.20;1.60;;;9.70;99.90;;;9.14;100.00;95950.66;4924793;28;20035;-44
2022/11/16 05:36:35;;;;;;;2.80;2.03;;;9.70;99.90;;;8.97;100.00;95920.00;4924028;28;20886;-45
2022/11/16 05:39:00;;;;;;;2.85;1.70;;;9.70;99.90;;;9.08;100.00;95943.06;4925196;28;20046;-43
2022/11/16 05:41:26;;;;;;;2.55;1.70;;;9.70;99.90;;;9.10;100.00;95951.75;4912114;28;20035;-43
2022/11/16 05:43:54;;;;;;;2.13;1.60;;;9.70;99.90;;;9.05;100.00;95949.38;4919224;28;20464;-41
2022/11/16 05:46:20;;;;;;;2.50;1.85;;;9.60;99.90;;;9.06;100.00;95952.84;4918076;28;20529;-43
2022/11/16 05:48:46;;;;;;;2.00;1.80;;;9.60;99.90;;;9.03;100.00;95956.50;4924035;28;20031;-44
2022/11/16 05:51:12;;;;;;;3.38;1.90;;;9.60;99.90;;;9.03;100.00;95958.28;4916998;28;20138;-47
2022/11/16 05:53:37;;;;;;;3.67;2.17;;;9.60;99.90;;;8.83;100.00;95933.03;4913941;28;20729;-44
2022/11/16 05:56:03;;;;;;;2.83;1.90;;;9.60;99.90;;;8.98;100.00;95954.09;4931721;28;21042;-47
2022/11/16 05:58:29;;;;;;;2.03;1.75;;;9.50;99.90;;;8.94;100.00;95949.94;4929285;28;20089;-46
2022/11/16 06:00:55;;;;;;;4.63;1.98;;;9.50;99.90;;;8.90;100.00;95944.91;4928917;28;20492;-43
2022/11/16 06:03:20;;;;;;;3.90;1.90;;;9.50;99.90;;;8.67;100.00;95915.47;4929612;28;20035;-45
2022/11/16 06:05:46;;;;;;;3.70;1.50;;;9.40;99.90;;;8.77;100.00;95944.72;4930343;28;20608;-45
2022/11/16 06:08:12;;;;;;;2.70;1.75;;;9.40;99.90;;;8.57;100.00;95922.13;4930257;28;20039;-43
2022/11/16 06:10:37;;;;;;;2.00;1.80;;;9.30;99.90;;;8.69;100.00;95950.41;4926882;28;20035;-43
2022/11/16 06:13:03;;;;;;;2.58;2.10;;;9.30;99.90;;;8.68;100.00;95945.22;4926859;28;20638;-47
2022/11/16 06:15:29;;;;;;;2.25;1.98;;;9.30;99.90;;;8.67;100.00;95941.75;4925378;28;20122;-46
2022/11/16 06:17:55;;;;;;;1.77;1.60;;;9.20;99.90;;;8.69;100.00;95952.19;4932135;28;20038;-45
2022/11/16 06:20:20;;;;;;;2.75;2.00;;;9.30;99.90;;;8.71;100.00;95959.03;4927770;28;20046;-45
2022/11/16 06:22:46;;;;;;;3.75;1.92;;;9.30;99.90;;;8.73;100.00;95958.97;4935408;28;20498;-43
2022/11/16 06:25:12;;;;;;;2.70;2.00;;;9.30;99.90;;;8.73;100.00;95964.22;4931733;28;20117;-43
2022/11/16 06:27:40;;;;;;;2.53;1.55;;;9.40;99.90;;;8.75;100.00;95971.09;4926391;28;20152;-44
2022/11/16 06:30:06;;;;;;;2.42;1.88;;;9.30;99.90;;;8.77;100.00;95971.88;4922931;28;20070;-45
2022/11/16 06:32:32;;;;;;;2.95;1.88;;;9.40;99.90;;;8.81;100.00;95977.81;4927935;28;20485;-45
2022/11/16 06:34:58;;;;;;;2.85;2.10;;;9.40;99.90;;;8.81;100.00;95964.69;4927211;28;20073;-44
2022/11/16 06:37:24;;;;;;;2.45;2.03;;;9.40;99.90;;;8.88;100.00;95980.97;4928637;28;20043;-46
2022/11/16 06:39:49;;;;;;;2.65;2.00;;;9.50;99.90;;;8.88;100.00;95984.47;4931673;28;20544;-44
2022/11/16 06:42:15;;;;;;;3.92;2.00;;;9.50;99.90;;;8.91;100.00;95986.06;4930957;28;20160;-46
2022/11/16 06:44:41;;;;;;;4.30;2.55;;;9.50;99.90;;;8.93;100.00;95992.94;4923780;28;20377;-45
2022/11/16 06:47:06;;;;;;;5.07;2.30;;;9.50;99.90;;;8.95;100.00;95990.22;4926383;28;20486;-45
2022/11/16 06:49:32;;;;;;;3.75;2.40;;;9.50;99.90;;;8.98;100.00;95995.31;4926220;28;20070;-45
2022/11/16 06:51:58;;;;;;;2.20;1.98;;;9.60;99.90;;;9.01;100.00;95996.94;4926524;28;20043;-42
2022/11/16 06:54:24;;;;;;;3.05;2.10;;;9.60;99.90;;;9.05;100.00;96001.13;4929718;28;20067;-46
2022/11/16 06:56:49;;;;;;;3.28;2.33;;;9.60;99.90;;;9.06;100.00;96005.44;4925876;28;20160;-45
2022/11/16 06:59:15;;;;;;;2.70;2.15;;;9.60;99.90;;;9.07;100.00;96001.88;4929754;28;20042;-46
2022/11/16 07:01:41;;;;;;;2.85;2.05;;;9.70;99.90;;;9.06;100.00;95997.53;4922445;28;20114;-43
2022/11/16 07:04:10;;;;;;;5.53;2.20;;;9.70;99.90;;;9.08;100.00;96001.81;4926009;28;20231;-44
2022/11/16 07:06:37;;;;;;;2.67;2.25;;;9.70;99.90;;;9.10;100.00;96014.88;4926173;28;20046;-43
2022/11/16 07:09:07;;;;;;;4.05;2.30;;;9.70;99.90;;;9.13;100.00;96012.94;4925485;28;20042;-46
2022/11/16 07:11:34;;;;;;;2.83;1.98;;;9.70;99.90;;;9.15;100.00;96011.06;4927439;28;20438;-43
2022/11/16 07:14:01;;;;;;;3.95;2.17;;;9.70;99.90;;;9.16;100.00;96015.38;4927376;28;20035;-45
2022/11/16 07:16:27;;;;;;;2.03;1.70;;;9.80;99.90;;;9.18;100.00;96031.91;4921589;28;20059;-47
2022/11/16 07:18:55;;;;;;;3.15;1.70;;;9.80;99.90;;;9.22;100.00;96027.34;4924364;28;20118;-46
2022/11/16 07:21:21;;;;;;;3.00;1.70;;;9.80;99.90;;;9.24;100.00;96037.78;4931352;28;20039;-45
2022/11/16 07:23:46;;;;;;;2.70;1.45;;;9.80;99.90;;;9.27;100.00;96038.47;4930819;28;20519;-42
2022/11/16 07:26:12;;;;;;;3.50;1.50;;;9.90;99.90;;;9.31;100.00;96044.41;4930410;28;20043;-44
2022/11/16 07:28:38;;;;;;;2.17;1.35;;;9.90;99.90;;;9.34;100.00;96042.47;4929310;28;20623;-44
2022/11/16 07:31:07;;;;;;;2.10;1.63;;;10.00;99.90;;;9.32;100.00;96039.09;4932953;28;20528;-46
2022/11/16 07:33:33;;;;;;;1.58;1.23;;;10.00;99.90;;;9.44;100.00;96050.75;4932149;28;20059;-43
2022/11/16 07:36:19;;;;;;;2.78;1.70;;;10.00;99.90;;;9.48;100.00;96040.91;4932039;28;20031;-44
2022/11/16 07:38:45;;;;;;;1.88;1.10;;;10.10;99.90;;;9.57;100.00;96052.72;4932299;28;20050;-46
2022/11/16 07:41:15;;;;;;;1.40;1.10;;;10.20;99.90;;;9.68;100.00;96050.34;4934646;28;20035;-43
2022/11/16 07:43:41;;;;;;;1.83;1.20;;;10.30;99.90;;;9.78;100.00;96054.16;4929927;28;20031;-46
2022/11/16 07:46:15;;;;;;;2.45;0.93;;;10.40;99.90;;;9.80;100.00;96054.06;4929211;28;21679;-43
2022/11/16 07:48:41;;;;;;;4.50;1.08;;;10.40;99.90;;;9.78;100.00;96063.81;4925337;28;20027;-44
2022/11/16 07:51:16;;;;;;;1.55;0.80;;;10.50;99.90;;;9.84;100.00;96066.13;4932941;28;20446;-46
2022/11/16 07:53:43;;;;;;;3.40;0.90;;;10.50;99.90;;;9.85;100.00;96067.81;4932840;28;20678;-47
2022/11/16 07:56:10;;;;;;;1.58;0.88;;;10.50;99.90;;;9.93;100.00;96057.72;4935738;28;20046;-43
2022/11/16 07:58:37;;;;;;;2.20;1.00;;;10.50;99.90;;;9.97;100.00;96068.94;4931070;28;20036;-47
2022/11/16 08:01:11;;;;;;;1.55;0.80;;;10.60;99.90;;;10.00;100.00;96069.63;4933308;28;20369;-46
2022/11/16 08:03:38;;;;;;;1.80;1.00;;;10.60;99.90;;;10.02;100.00;96067.75;4926895;28;20070;-45
2022/11/16 08:06:09;;;;;;;2.05;0.60;;;10.60;99.90;;;10.00;100.00;96069.63;4935383;28;20059;-47
2022/11/16 08:08:35;;;;;;;1.80;0.55;;;10.60;99.90;;;10.05;100.00;96072.84;4937390;28;20055;-44
2022/11/16 08:11:03;;;;;;;1.42;0.60;;;10.70;99.90;;;10.10;100.00;96076.06;4935934;28;20493;-46
2022/11/16 08:13:33;;;;;;;1.08;0.50;;;10.70;99.90;;;10.16;100.00;96081.91;4935773;28;20028;-45
2022/11/16 08:16:22;;;;;;;1.83;0.70;;;10.70;99.90;;;10.20;100.00;96076.38;4936875;28;20047;-47
2022/11/16 08:18:48;;;;;;;2.63;0.80;;;10.80;99.90;;;10.27;100.00;96066.38;4937451;28;20063;-47
2022/11/16 08:21:16;;;;;;;1.73;0.50;;;10.90;99.90;;;10.35;100.00;96064.16;4936956;28;20462;-43
2022/11/16 08:23:43;;;;;;;1.17;0.80;;;10.90;99.90;;;10.46;100.00;96066.16;4933819;28;20043;-45
2022/11/16 08:26:16;;;;;;;1.42;0.73;;;11.10;99.90;;;10.58;100.00;96062.00;4935928;28;20031;-45
2022/11/16 08:28:44;;;;;;;3.55;0.90;;;11.20;99.90;;;10.66;100.00;96063.25;4935356;28;20485;-47
2022/11/16 08:31:17;;;;;;;2.25;0.80;;;11.20;99.90;;;10.74;100.00;96065.41;4934742;28;20045;-44
2022/11/16 08:33:43;;;;;;;1.55;0.68;;;11.30;99.90;;;10.84;100.00;96071.03;4934878;28;20027;-47
2022/11/16 08:36:15;;;;;;;3.72;0.80;;;11.40;99.90;;;10.87;100.00;96071.69;4937100;28;20030;-47
2022/11/16 08:38:46;;;;;;;2.13;0.63;;;11.50;99.90;;;10.98;100.00;96073.69;4935106;28;20042;-47
2022/11/16 08:41:12;;;;;;;1.02;0.60;;;11.60;99.90;;;11.03;100.00;96073.38;4934585;28;20039;-47
2022/11/16 08:43:39;;;;;;;1.02;0.43;;;11.60;99.90;;;11.08;100.00;96071.31;4933390;28;20299;-45
2022/11/16 08:46:06;;;;;;;1.55;0.55;;;11.60;99.90;;;11.10;100.00;96074.72;4934983;28;20591;-47
2022/11/16 08:48:34;;;;;;;1.92;0.70;;;11.60;99.90;;;11.06;100.00;96065.31;4936678;28;20049;-44
2022/11/16 08:51:11;;;;;;;2.60;0.75;;;11.60;99.90;;;11.04;100.00;96089.13;4936436;28;20031;-44
2022/11/16 08:53:37;;;;;;;1.38;0.80;;;11.60;99.90;;;10.95;100.00;96081.78;4939526;28;20035;-43
2022/11/16 08:56:10;;;;;;;1.88;0.70;;;11.50;99.90;;;10.93;100.00;96082.78;4938622;28;20122;-45
2022/11/16 08:58:36;;;;;;;1.58;0.70;;;11.50;99.90;;;10.89;100.00;96090.91;4939080;28;21035;-47
2022/11/16 09:01:17;;;;;;;4.50;1.05;;;11.40;99.90;;;10.82;100.00;96089.56;4941139;28;20977;-45
2022/11/16 09:03:44;;;;;;;1.85;0.70;;;11.30;99.90;;;10.82;100.00;96088.69;4939080;28;20051;-46
2022/11/16 09:06:11;;;;;;;3.05;0.60;;;11.30;99.90;;;10.79;100.00;96100.28;4939171;28;20027;-45
2022/11/16 09:08:39;;;;;;;2.33;0.60;;;11.30;99.90;;;10.76;100.00;96094.34;4935415;28;20035;-45
2022/11/16 09:11:18;;;;;;;1.05;0.52;;;11.30;99.90;;;10.74;100.00;96099.69;4936905;28;20031;-43
2022/11/16 09:13:46;;;;;;;1.63;0.77;;;11.20;99.90;;;10.75;100.00;96096.13;4944779;28;20023;-47
2022/11/16 09:16:15;;;;;;;2.28;0.60;;;11.20;99.90;;;10.78;100.00;96092.47;4930078;28;20155;-44
2022/11/16 09:18:42;;;;;;;2.42;0.70;;;11.20;99.90;;;10.78;100.00;96087.19;4932465;28;20310;-47
2022/11/16 09:21:07;;;;;;;1.95;0.52;;;11.30;99.90;;;10.83;100.00;96088.59;4938836;28;20043;-46
2022/11/16 09:23:33;;;;;;;1.60;0.60;;;11.30;99.90;;;10.67;100.00;96064.91;4939015;28;20396;-44
2022/11/16 09:26:04;;;;;;;2.17;0.70;;;11.30;99.90;;;10.71;100.00;96081.41;4937804;28;20429;-43
2022/11/16 09:28:30;;;;;;;1.17;0.60;;;11.20;99.90;;;10.57;100.00;96084.00;4938239;28;20039;-44
2022/11/16 09:31:00;;;;;;;1.50;0.43;;;11.10;99.90;;;10.43;100.00;96090.09;4938790;28;20028;-44
2022/11/16 09:33:29;;;;;;;1.67;0.70;;;11.00;99.90;;;10.32;100.00;96091.53;4937900;28;20038;-46
2022/11/16 09:36:00;;;;;;;1.73;0.60;;;10.90;99.90;;;10.27;100.00;96090.06;4937040;28;20027;-44
2022/11/16 09:38:26;;;;;;;3.53;0.70;;;10.90;99.90;;;10.24;100.00;96088.44;4982546;23;20058;-40
2022/11/16 09:40:51;;;;;;;1.83;0.63;;;10.90;99.90;;;10.18;100.00;96093.22;4978730;28;20037;-40
2022/11/16 09:43:29;;;;;;;1.08;0.50;;;10.80;99.90;;;10.07;100.00;96093.84;4973332;28;20713;-40
2022/11/16 09:46:33;;;;;;;1.92;0.80;;;10.70;99.90;;;10.01;100.00;96087.09;4977341;28;20399;-43
2022/11/16 09:49:02;;;;;;;0.80;0.50;;;10.60;99.90;;;10.19;100.00;96108.09;4960869;28;20125;-43
2022/11/16 09:51:32;;;;;;;1.52;0.82;;;10.70;99.90;;;10.36;100.00;96110.66;4953896;28;20428;-43
2022/11/16 09:54:14;;;;;;;3.40;0.60;;;10.90;99.90;;;10.55;100.00;96099.06;4952257;28;20026;-42
2022/11/16 09:56:41;;;;;;;5.37;1.10;;;11.10;99.90;;;10.64;100.00;96103.81;4955749;28;20262;-41
2022/11/16 09:59:07;;;;;;;2.78;1.00;;;11.20;99.90;;;10.81;100.00;96097.56;4960245;28;20027;-43
2022/11/16 10:02:02;;;;;;;2.25;1.00;;;11.40;99.90;;;11.13;100.00;96103.56;4959079;28;20034;-43
2022/11/16 10:04:42;;;;;;;1.50;0.70;;;11.70;99.90;;;11.43;100.00;96098.22;4954523;28;20109;-44
2022/11/16 10:07:19;;;;;;;1.63;0.82;;;12.00;99.90;;;11.64;100.00;96098.69;4959232;28;20039;-44
2022/11/16 10:09:45;;;;;;;3.85;0.73;;;12.20;99.90;;;11.80;100.00;96092.44;4966515;28;20524;-44
2022/11/16 10:13:08;;;;;;;1.23;0.60;;;12.40;99.90;;;12.08;100.00;96096.00;4950911;28;20645;-44
2022/11/16 10:16:17;;;;;;;2.42;1.15;;;12.70;99.90;;;12.12;100.00;96094.88;4958605;28;20114;-41
2022/11/16 10:19:09;;;;;;;1.95;0.95;;;12.70;99.90;;;12.09;100.00;96097.72;4954881;28;20239;-42
2022/11/16 10:21:47;;;;;;;2.00;1.02;;;12.70;99.90;;;12.07;100.00;96097.81;4960123;28;20030;-42
2022/11/16 10:24:37;;;;;;;2.33;1.05;;;12.70;99.90;;;12.22;100.00;96090.69;4957245;28;20143;-41
2022/11/16 10:27:45;;;;;;;0.95;0.70;;;12.80;99.90;;;12.42;100.00;96089.41;4948731;28;20536;-41
2022/11/16 10:30:17;;;;;;;1.52;0.70;;;13.00;99.90;;;12.61;100.00;96091.69;4972660;28;20066;-41
2022/11/16 10:33:03;;;;;;;;;;;13.20;99.90;;;12.76;100.00;96080.09;4957358;28;20022;-41
2022/11/16 10:35:44;;;;;;;3.75;0.80;;;13.40;99.90;;;12.88;100.00;96088.16;4955426;28;19922;-43
2022/11/16 10:38:14;;;;;;;1.67;0.70;;;13.40;99.90;;;13.01;100.00;96075.81;4951068;28;20042;-43
2022/11/16 10:40:41;;;;;;;2.72;0.80;;;13.50;99.90;;;13.14;100.00;96073.19;4953381;28;20485;-42
2022/11/16 10:43:12;;;;;;;1.88;0.90;;;13.80;99.90;;;13.35;100.00;96068.22;4951796;28;20049;-42
2022/11/16 10:46:11;;;;;;;1.60;0.77;;;14.00;99.90;;;13.57;100.00;96064.94;4951574;28;20070;-42
2022/11/16 10:49:06;;;;;;;1.75;0.90;;;14.20;99.90;;;13.69;100.00;96057.91;4955607;28;20035;-41
2022/11/16 10:51:31;;;;;;;2.10;1.10;;;14.40;99.90;;;13.83;100.00;96055.13;4953543;28;20042;-42
2022/11/16 10:53:57;;;;;;;2.17;1.00;;;14.50;99.90;;;13.87;100.00;96053.97;4957697;28;20348;-42
2022/11/16 10:56:36;;;;;;;3.00;0.85;;;14.60;99.90;;;13.99;100.00;96051.38;4950694;28;20113;-42
2022/11/16 10:59:04;;;;;;;1.25;0.73;;;14.60;99.90;;;14.01;100.00;96050.31;4958542;28;20373;-42
2022/11/16 11:01:37;;;;;;;1.42;0.80;;;14.60;99.90;;;13.96;100.00;96043.66;4956516;28;20030;-43
2022/11/16 11:04:23;;;;;;;3.38;0.90;;;14.60;99.90;;;13.83;100.00;96041.88;4956164;28;20043;-43
2022/11/16 11:07:01;;;;;;;1.40;0.75;;;14.50;99.90;;;13.78;100.00;96038.72;4964528;28;20514;-41
2022/11/16 11:09:36;;;;;;;2.58;0.80;;;14.30;99.90;;;13.66;100.00;96039.63;4952578;28;20069;-42
2022/11/16 11:15:09;;;;;;;3.67;0.60;;;14.20;99.90;;;13.71;100.00;96040.09;4954026;28;20042;-43
2022/11/16 11:17:37;;;;;;;1.85;0.52;;;14.40;99.90;;;13.79;100.00;96044.88;4952113;28;20235;-43
2022/11/16 11:20:16;;;;;;;4.05;0.75;;;14.50;99.90;;;13.72;97.13;96045.28;4954487;28;20069;-43
2022/11/16 11:22:57;;;;;;;0.90;0.60;;;14.50;99.90;;;13.86;94.78;96040.84;4944802;28;20501;-44
2022/11/16 11:25:28;;;;;;;3.47;0.77;;;14.50;99.90;;;13.91;95.59;96033.41;4950963;28;20129;-45
2022/11/16 11:28:25;;;;;;;1.65;0.50;;;14.50;99.90;;;14.09;100.00;96039.19;4954069;28;20057;-43
2022/11/16 11:31:24;;;;;;;2.10;0.80;;;14.70;99.90;;;14.08;94.05;96037.47;4943976;28;20058;-42